createdAt,value
2022-11-24T01:23:44.642Z,8.42
2022-11-24T01:34:12.691Z,8.55
2022-11-24T01:39:29.059Z,8.65
2022-11-24T01:48:14.862Z,8.28
2022-11-24T02:10:50.588Z,8.57
2022-11-24T02:14:21.644Z,8.58
2022-11-24T02:18:18.728Z,8.87
2022-11-24T02:22:05.128Z,9.17
2022-11-24T02:31:57.517Z,8.64
2022-11-24T02:34:43.393Z,9.14
2022-11-24T02:37:18.936Z,8.84
2022-11-24T02:39:50.383Z,9.08
2022-11-24T02:42:21.891Z,9.26
2022-11-24T02:45:31.287Z,9.35
2022-11-24T02:48:13.858Z,8.53
2022-11-24T02:51:04.319Z,8.40
2022-11-24T02:53:39.950Z,8.30
2022-11-24T02:56:11.784Z,7.98
2022-11-24T02:58:44.459Z,8.17
2022-11-24T03:01:43.565Z,8.42
2022-11-24T03:04:19.792Z,8.32
2022-11-24T03:07:15.696Z,8.47
2022-11-24T03:10:17.926Z,8.51
2022-11-24T03:12:50.360Z,8.30
2022-11-24T03:15:23.454Z,8.32
2022-11-24T03:18:05.472Z,8.66
2022-11-24T03:20:39.359Z,8.65
2022-11-24T03:23:15.494Z,9.19
2022-11-24T03:30:48.688Z,9.31
2022-11-24T03:33:23.220Z,9.48
2022-11-24T03:36:06.416Z,9.48
2022-11-24T03:39:23.779Z,9.60
2022-11-24T03:43:22.971Z,9.79
2022-11-24T03:49:10.101Z,8.92
2022-11-24T03:51:52.066Z,9.02
2022-11-24T03:54:40.607Z,9.93
2022-11-24T03:57:15.142Z,9.47
2022-11-24T03:59:51.627Z,9.69
2022-11-24T04:03:17.173Z,10.22
2022-11-24T04:07:19.258Z,9.99
2022-11-24T04:10:22.990Z,9.78
2022-11-24T04:24:18.074Z,9.05
2022-11-24T04:27:16.510Z,9.07
2022-11-24T04:30:19.616Z,9.22
2022-11-24T04:33:20.311Z,8.53
2022-11-24T04:36:31.891Z,8.80
2022-11-24T05:06:04.176Z,9.55
2022-11-24T05:12:55.477Z,9.48
2022-11-24T05:16:39.060Z,9.82
2022-11-24T05:29:40.394Z,10.12
2022-11-24T05:32:38.402Z,9.99
2022-11-24T05:35:19.443Z,10.13
2022-11-24T05:37:51.952Z,9.73
2022-11-24T05:40:35.739Z,9.57
2022-11-24T05:44:10.839Z,10.34
2022-11-24T05:46:47.432Z,9.39
2022-11-24T05:50:10.441Z,10.08
2022-11-24T05:58:10.155Z,9.94
2022-11-24T06:06:26.763Z,9.93
2022-11-24T06:30:19.649Z,9.75
2022-11-24T06:32:51.506Z,9.06
2022-11-24T06:36:04.851Z,9.29
2022-11-24T06:38:46.912Z,10.00
2022-11-24T06:41:23.191Z,9.89
2022-11-24T06:48:23.653Z,10.31
2022-11-24T06:51:00.349Z,9.55
2022-11-24T06:53:40.451Z,10.13
2022-11-24T06:56:23.196Z,10.06
2022-11-24T06:59:24.506Z,9.94
2022-11-24T07:02:45.607Z,9.99
2022-11-24T07:05:29.150Z,10.08
2022-11-24T07:08:03.083Z,10.00
2022-11-24T07:10:36.909Z,10.13
2022-11-24T07:13:12.159Z,10.12
2022-11-24T07:15:46.009Z,10.12
2022-11-24T07:18:16.251Z,10.02
2022-11-24T07:20:54.360Z,10.34
2022-11-24T07:23:24.737Z,9.94
2022-11-24T07:26:07.323Z,9.84
2022-11-24T07:28:42.328Z,10.08
2022-11-24T07:31:19.967Z,10.51
2022-11-24T07:34:02.847Z,10.54
2022-11-24T07:36:35.171Z,10.20
2022-11-24T07:39:16.672Z,10.48
2022-11-24T07:41:52.060Z,10.27
2022-11-24T07:44:22.626Z,9.84
2022-11-24T07:46:55.124Z,9.85
2022-11-24T07:49:36.365Z,10.26
2022-11-24T07:52:12.288Z,10.22
2022-11-24T07:54:42.866Z,9.66
2022-11-24T07:57:16.723Z,10.24
2022-11-24T07:59:49.096Z,10.23
2022-11-24T08:02:20.965Z,10.17
2022-11-24T08:04:53.275Z,10.19
2022-11-24T08:07:42.351Z,10.11
2022-11-24T08:10:39.599Z,10.61
2022-11-24T08:13:11.482Z,9.86
2022-11-24T08:15:42.481Z,9.93
2022-11-24T08:18:14.564Z,10.02
2022-11-24T08:20:47.791Z,10.43
2022-11-24T08:23:20.449Z,10.22
2022-11-24T08:26:20.797Z,10.11
2022-11-24T08:29:07.579Z,10.30
2022-11-24T08:31:42.827Z,10.07
2022-11-24T08:34:12.493Z,10.02
2022-11-24T08:36:47.536Z,10.17
2022-11-24T08:40:01.299Z,10.75
2022-11-24T09:27:38.584Z,10.61
2022-11-24T10:44:04.270Z,10.67
2022-11-24T10:55:52.234Z,10.91
2022-11-24T11:06:04.001Z,10.67
2022-11-24T11:39:24.099Z,10.74
2022-11-24T11:56:19.215Z,10.72
2022-11-24T12:14:19.451Z,10.95
2022-11-24T12:40:51.965Z,11.02
2022-11-24T13:21:24.611Z,10.94
2022-11-24T13:32:48.296Z,10.59
2022-11-24T14:38:30.086Z,9.05
2022-11-24T14:41:28.296Z,10.00
2022-11-24T14:44:09.383Z,9.93
2022-11-24T14:46:39.565Z,9.30
2022-11-24T14:49:09.876Z,9.12
2022-11-24T14:51:45.919Z,9.76
2022-11-24T14:54:19.357Z,9.67
2022-11-24T14:57:04.917Z,9.77
2022-11-24T14:59:39.373Z,9.11
2022-11-24T15:02:45.732Z,9.34
2022-11-24T15:05:20.379Z,8.80
2022-11-24T15:39:35.581Z,7.60
2022-11-24T16:15:18.521Z,6.91
2022-11-24T16:37:52.250Z,6.51
2022-11-24T16:42:10.769Z,6.14
2022-11-24T16:46:48.582Z,6.20
2022-11-24T17:17:32.468Z,5.88
2022-11-24T17:38:34.482Z,6.38
2022-11-24T17:41:06.723Z,6.77
2022-11-24T17:43:38.214Z,6.18
2022-11-24T17:46:12.349Z,5.80
2022-11-24T17:48:43.784Z,6.71
2022-11-24T17:51:25.328Z,6.12
2022-11-24T17:54:03.305Z,6.29
2022-11-24T17:56:43.543Z,6.10
2022-11-24T17:59:16.191Z,6.34
2022-11-24T18:01:47.630Z,5.91
2022-11-24T18:04:17.901Z,5.66
2022-11-24T19:11:43.849Z,4.66
2022-11-24T20:09:04.693Z,5.10
2022-11-24T20:19:19.982Z,5.05
2022-11-24T20:29:12.638Z,5.12
2022-11-24T21:53:52.739Z,5.53
2022-11-24T22:09:32.959Z,5.75
2022-11-24T22:54:47.172Z,7.00
2022-11-24T23:39:19.420Z,7.66
2022-11-24T23:41:53.261Z,7.67
2022-11-24T23:44:23.949Z,7.18
2022-11-24T23:46:54.730Z,7.81
2022-11-24T23:49:27.751Z,7.59
2022-11-24T23:52:00.199Z,7.61
2022-11-24T23:54:31.320Z,7.70
2022-11-24T23:57:02.387Z,8.14
2022-11-24T23:59:31.887Z,8.10
